Archival Weather

Heathrow

Heathrow, United Kingdom (EGLL)

Report from: Thursday, June 23, 2022 9:20 PM BST
Current time: Tuesday, August 16, 2022 9:13 AM BST

Current weather
Weather history
Weather forecast

Temperature20.0°C (68.0°F)
Dew point15.0°C (59.0°F)
Winds 8 kts (4.1 m/s, 9.2 mph) Vrb
Winds variableWinds variable from South-Southeast (160°) to West-Southwest (250°)
Visibility6.2 mi. (10 km)
Clouds Sky clear
Altimeter29.74 in.Hg (1007 mB)
Relative humidity73 %
Density altitude1,032 ft. (315 m)
Remarks Fully automated report
Corrected report
No clouds detected
No significant changes expected in the next two hours
Flight conditions Visual Meteorological Conditions
Raw dataCOR EGLL 232020Z AUTO 19008KT 160V250 9999 NCD 20/15 Q1007 NOSIG
An error has occurred. This application may no longer respond until reloaded. Reload 🗙